Wilsey Dupre — WDF3703 — position and weather

sailwx.info

Track history (hours):
 
Tides and Currents Weather Stations Pressure Air Temp Water Temp Dewpoint Dewpoint Depression Visibility Wind Speed Wind Dir Waves Ship Positions

Wilsey Dupre

Owner: LeBeouf Bros. Towing, LLC, Houma, LA. More information available from US FCC via Universal Licensing System.

Last reported at 2018-Feb-19 12:41 UTC. Time now 2018-Feb-19 14:18 UTC.
Position N 27°06' W 097°27'.

Length 23 m; draft 3 m.

Type: Ship. MMSI: 367443060.

Date/timePositionNaut miles runAvg speedWind from/ knotsBaromVisibWave heightAir tempDewpointWater temp
2018-Feb-19 12:41N 27°06' W 097°27'0 0.0
2018-Feb-19 12:29N 27°06' W 097°27'0 0.0
2018-Feb-19 11:28N 27°06' W 097°27'0 0.0
2018-Feb-19 10:48N 27°06' W 097°27'0 0.0
2018-Feb-19 10:12N 27°06' W 097°27'0 0.0
2018-Feb-19 09:46N 27°06' W 097°27'0 0.0
2018-Feb-19 06:25N 27°06' W 097°27'28 3.8
2018-Feb-18 23:08N 27°32' W 097°17'2 4.1
2018-Feb-18 22:46N 27°34' W 097°17'2 4.1
2018-Feb-18 22:23N 27°35' W 097°16'2 4.0
2018-Feb-18 21:52N 27°37' W 097°15'2 4.0
2018-Feb-18 21:29N 27°39' W 097°14'  
2018-Feb-16 03:07N 27°49' W 097°26'0 0.0
2018-Feb-16 03:01N 27°49' W 097°26'0 0.0
2018-Feb-16 02:26N 27°49' W 097°26'0 0.0
2018-Feb-16 01:51N 27°49' W 097°26'0 0.0
2018-Feb-16 01:30N 27°49' W 097°26'0 0.0
2018-Feb-16 00:59N 27°49' W 097°26'0 0.0
2018-Feb-15 23:34N 27°49' W 097°26'0 0.0
2018-Feb-15 23:29N 27°49' W 097°26'0 0.0
2018-Feb-15 23:00N 27°49' W 097°26'21 3.2
2018-Feb-15 16:34N 27°52' W 097°03'0 3.7
2018-Feb-15 16:30N 27°52' W 097°03'0 0.0
2018-Feb-15 15:59N 27°52' W 097°03'0 0.0
2018-Feb-15 15:26N 27°52' W 097°03'0 0.0
2018-Feb-15 14:59N 27°52' W 097°03'0 0.0
2018-Feb-15 14:31N 27°52' W 097°03'0 0.0
2018-Feb-15 13:59N 27°52' W 097°03'0 0.0
2018-Feb-15 13:01N 27°52' W 097°03'0 0.0
2018-Feb-15 12:59N 27°52' W 097°03'0 0.0
2018-Feb-15 11:46N 27°52' W 097°03'0 0.0
2018-Feb-15 11:30N 27°52' W 097°03'0 0.0
2018-Feb-15 07:51N 27°52' W 097°03'0 0.0
2018-Feb-15 07:29N 27°52' W 097°03'0 0.0
2018-Feb-15 06:58N 27°52' W 097°03'0 0.0
2018-Feb-15 06:25N 27°52' W 097°03'0 0.0
2018-Feb-15 05:59N 27°52' W 097°03'0 0.0
2018-Feb-15 05:29N 27°52' W 097°03'0 0.0
2018-Feb-15 05:00N 27°52' W 097°03'0 0.0
2018-Feb-15 04:30N 27°52' W 097°03'0 0.0
2018-Feb-15 03:59N 27°52' W 097°03'0 0.0
2018-Feb-15 03:29N 27°52' W 097°03'0 0.0
2018-Feb-15 02:59N 27°52' W 097°03'0 0.0
2018-Feb-15 02:30N 27°52' W 097°03'0 0.0
2018-Feb-15 02:00N 27°52' W 097°03'0 0.0
2018-Feb-15 01:29N 27°52' W 097°03'0 0.0
2018-Feb-15 00:58N 27°52' W 097°03'0 0.0
2018-Feb-15 00:30N 27°52' W 097°03'0 0.0
2018-Feb-14 23:59N 27°52' W 097°03'0 0.0
2018-Feb-14 23:30N 27°52' W 097°03'0 0.0
2018-Feb-14 23:00N 27°52' W 097°03'0 0.0
2018-Feb-14 22:27N 27°52' W 097°03'0 0.0
2018-Feb-14 21:59N 27°52' W 097°03'0 0.0
2018-Feb-14 21:30N 27°52' W 097°03'0 0.0
2018-Feb-14 20:58N 27°52' W 097°03'0 0.0
2018-Feb-14 20:30N 27°52' W 097°03'0 0.0
2018-Feb-14 19:57N 27°52' W 097°03'0 0.0
2018-Feb-14 19:30N 27°52' W 097°03'0 0.0
2018-Feb-14 18:59N 27°52' W 097°03'0 0.0
2018-Feb-14 18:29N 27°52' W 097°03'0 0.0
2018-Feb-14 17:59N 27°52' W 097°03'0 0.0
2018-Feb-14 17:30N 27°52' W 097°03'0 0.0
2018-Feb-14 17:00N 27°52' W 097°03'0 0.0
2018-Feb-14 16:29N 27°52' W 097°03'0 0.0
2018-Feb-14 16:00N 27°52' W 097°03'0 0.0
2018-Feb-14 15:29N 27°52' W 097°03'0 0.0
2018-Feb-14 15:00N 27°52' W 097°03'0 0.0
2018-Feb-14 14:30N 27°52' W 097°03'0 0.0
2018-Feb-14 14:00N 27°52' W 097°03'0 0.0
2018-Feb-14 13:29N 27°52' W 097°03'0 0.0
2018-Feb-14 12:59N 27°52' W 097°03'0 0.0
2018-Feb-14 12:26N 27°52' W 097°03'0 0.0
2018-Feb-14 11:58N 27°52' W 097°03'0 0.0
2018-Feb-14 11:30N 27°52' W 097°03'0 0.0
2018-Feb-14 10:59N 27°52' W 097°03'0 0.0
2018-Feb-14 10:29N 27°52' W 097°03'0 0.0
2018-Feb-14 10:00N 27°52' W 097°03'0 0.0
2018-Feb-14 09:27N 27°52' W 097°03'0 0.0
2018-Feb-14 08:59N 27°52' W 097°03'0 0.0
2018-Feb-14 08:30N 27°52' W 097°03'0 0.0
2018-Feb-14 08:00N 27°52' W 097°03'0 0.0
2018-Feb-14 07:29N 27°52' W 097°03'0 0.0
2018-Feb-14 06:59N 27°52' W 097°03'0 0.0
2018-Feb-14 06:30N 27°52' W 097°03'0 0.0
2018-Feb-14 06:00N 27°52' W 097°03'0 0.0
2018-Feb-14 05:30N 27°52' W 097°03'0 0.0
2018-Feb-14 05:00N 27°52' W 097°03'0 0.0
2018-Feb-14 04:29N 27°52' W 097°03'0 0.0
2018-Feb-14 03:59N 27°52' W 097°03'0 0.0
2018-Feb-14 03:29N 27°52' W 097°03'0 0.0
2018-Feb-14 03:00N 27°52' W 097°03'0 0.0
2018-Feb-14 02:30N 27°52' W 097°03'0 0.0
2018-Feb-14 02:00N 27°52' W 097°03'0 0.0
2018-Feb-14 01:29N 27°52' W 097°03'0 0.0
2018-Feb-14 00:59N 27°52' W 097°03'0 0.0
2018-Feb-14 00:30N 27°52' W 097°03'0 0.0
2018-Feb-13 23:59N 27°52' W 097°03'0 0.0
2018-Feb-13 23:29N 27°52' W 097°03'0 0.0
2018-Feb-13 22:59N 27°52' W 097°03'0 0.0
2018-Feb-13 22:29N 27°52' W 097°03'0 0.4
2018-Feb-13 22:00N 27°52' W 097°03'1 2.5
2018-Feb-13 21:30N 27°51' W 097°04'1 1.3
2018-Feb-13 21:00N 27°51' W 097°03'1 1.6
2018-Feb-13 20:29N 27°52' W 097°03'0 0.0
2018-Feb-13 19:59N 27°52' W 097°03'0 0.0
2018-Feb-13 19:28N 27°52' W 097°03'0 0.0
2018-Feb-13 19:00N 27°52' W 097°03'0 0.0
2018-Feb-13 18:30N 27°52' W 097°03'0 0.0
2018-Feb-13 17:59N 27°52' W 097°03'0 0.0
2018-Feb-13 17:30N 27°52' W 097°03'0 0.4
2018-Feb-13 16:58N 27°52' W 097°03'1 2.7
2018-Feb-13 16:30N 27°51' W 097°04'1 2.9
2018-Feb-13 15:59N 27°52' W 097°03'0 0.0
2018-Feb-13 15:29N 27°52' W 097°03'0 0.0
2018-Feb-13 15:00N 27°52' W 097°03'0 0.0
2018-Feb-13 14:30N 27°52' W 097°03'0 0.0
2018-Feb-13 13:59N 27°52' W 097°03'0 0.0
2018-Feb-13 13:29N 27°52' W 097°03'0 0.0
2018-Feb-13 13:00N 27°52' W 097°03'0 0.0
2018-Feb-13 12:30N 27°52' W 097°03'0 0.0
2018-Feb-13 11:59N 27°52' W 097°03'0 0.0
2018-Feb-13 11:27N 27°52' W 097°03'0 0.0
2018-Feb-13 11:00N 27°52' W 097°03'0 0.0
2018-Feb-13 10:28N 27°52' W 097°03'1 1.9
2018-Feb-13 09:58N 27°51' W 097°03'1 2.1
2018-Feb-13 09:29N 27°52' W 097°03'0 0.0
2018-Feb-13 08:59N 27°52' W 097°03'0 0.0
2018-Feb-13 08:29N 27°52' W 097°03'0 0.0
2018-Feb-13 08:00N 27°52' W 097°03'0 0.0
2018-Feb-13 07:30N 27°52' W 097°03'0 0.0
2018-Feb-13 07:00N 27°52' W 097°03'0 0.0
2018-Feb-13 06:29N 27°52' W 097°03'0 0.0
2018-Feb-13 05:59N 27°52' W 097°03'0 0.0
2018-Feb-13 05:30N 27°52' W 097°03'0 0.0
2018-Feb-13 05:00N 27°52' W 097°03'0 0.0
2018-Feb-13 04:30N 27°52' W 097°03'0 0.0
2018-Feb-13 03:59N 27°52' W 097°03'0 0.0
2018-Feb-13 03:29N 27°52' W 097°03'0 0.0
2018-Feb-13 02:59N 27°52' W 097°03'0 0.0
2018-Feb-13 02:30N 27°52' W 097°03'0 0.0
2018-Feb-13 02:00N 27°52' W 097°03'0 0.0
2018-Feb-13 01:28N 27°52' W 097°03'0 0.0
2018-Feb-13 01:00N 27°52' W 097°03'0 0.0
2018-Feb-13 00:29N 27°52' W 097°03'0 0.0
2018-Feb-12 23:58N 27°52' W 097°03'0 0.0
2018-Feb-12 23:30N 27°52' W 097°03'0 0.0
2018-Feb-12 23:00N 27°52' W 097°03'0 0.0
2018-Feb-12 22:29N 27°52' W 097°03'0 0.0
2018-Feb-12 21:59N 27°52' W 097°03'0 0.0
2018-Feb-12 21:30N 27°52' W 097°03'0 0.0
2018-Feb-12 20:58N 27°52' W 097°03'0 0.0
2018-Feb-12 20:30N 27°52' W 097°03'0 0.0
2018-Feb-12 19:58N 27°52' W 097°03'0 0.0
2018-Feb-12 19:29N 27°52' W 097°03'0 0.0
2018-Feb-12 18:57N 27°52' W 097°03'0 0.0
2018-Feb-12 18:29N 27°52' W 097°03'0 0.0
2018-Feb-12 17:58N 27°52' W 097°03'0 0.0
2018-Feb-12 17:30N 27°52' W 097°03'0 0.0
2018-Feb-12 17:00N 27°52' W 097°03'0 0.0
2018-Feb-12 16:29N 27°52' W 097°03'0 0.0
2018-Feb-12 15:59N 27°52' W 097°03'0 0.0
2018-Feb-12 15:17N 27°52' W 097°03'0 0.0
2018-Feb-12 15:00N 27°52' W 097°03'0 0.0
2018-Feb-12 14:28N 27°52' W 097°03'17 0.4
2018-Feb-10 15:50N 28°07' W 096°55'0 0.0
2018-Feb-10 15:30N 28°07' W 096°55'0 0.0
2018-Feb-10 14:59N 28°07' W 096°55'0 0.0
2018-Feb-10 14:30N 28°07' W 096°55'0 0.0
2018-Feb-09 19:30N 28°07' W 096°55'0 0.0
2018-Feb-09 15:30N 28°08' W 096°55'  
Track history (hours):
 
Tides and Currents Weather Stations Pressure Air Temp Water Temp Dewpoint Dewpoint Depression Visibility Wind Speed Wind Dir Waves Ship Positions

Wilsey Dupre

Owner: LeBeouf Bros. Towing, LLC, Houma, LA. More information available from US FCC via Universal Licensing System.

Last reported at 2018-Feb-19 12:41 UTC. Time now 2018-Feb-19 14:18 UTC.
Position N 27°06' W 097°27'.

Length 23 m; draft 3 m.

Type: Ship. MMSI: 367443060.

Date/timePositionNaut miles runAvg speedWind from/ knotsBaromVisibWave heightAir tempDewpointWater temp
2018-Feb-19 12:41N 27°06' W 097°27'0 0.0
2018-Feb-19 12:29N 27°06' W 097°27'0 0.0
2018-Feb-19 11:28N 27°06' W 097°27'0 0.0
2018-Feb-19 10:48N 27°06' W 097°27'0 0.0
2018-Feb-19 10:12N 27°06' W 097°27'0 0.0
2018-Feb-19 09:46N 27°06' W 097°27'0 0.0
2018-Feb-19 06:25N 27°06' W 097°27'28 3.8
2018-Feb-18 23:08N 27°32' W 097°17'2 4.1
2018-Feb-18 22:46N 27°34' W 097°17'2 4.1
2018-Feb-18 22:23N 27°35' W 097°16'2 4.0
2018-Feb-18 21:52N 27°37' W 097°15'2 4.0
2018-Feb-18 21:29N 27°39' W 097°14'  
2018-Feb-16 03:07N 27°49' W 097°26'0 0.0
2018-Feb-16 03:01N 27°49' W 097°26'0 0.0
2018-Feb-16 02:26N 27°49' W 097°26'0 0.0
2018-Feb-16 01:51N 27°49' W 097°26'0 0.0
2018-Feb-16 01:30N 27°49' W 097°26'0 0.0
2018-Feb-16 00:59N 27°49' W 097°26'0 0.0
2018-Feb-15 23:34N 27°49' W 097°26'0 0.0
2018-Feb-15 23:29N 27°49' W 097°26'0 0.0
2018-Feb-15 23:00N 27°49' W 097°26'21 3.2
2018-Feb-15 16:34N 27°52' W 097°03'0 3.7
2018-Feb-15 16:30N 27°52' W 097°03'0 0.0
2018-Feb-15 15:59N 27°52' W 097°03'0 0.0
2018-Feb-15 15:26N 27°52' W 097°03'0 0.0
2018-Feb-15 14:59N 27°52' W 097°03'0 0.0
2018-Feb-15 14:31N 27°52' W 097°03'0 0.0
2018-Feb-15 13:59N 27°52' W 097°03'0 0.0
2018-Feb-15 13:01N 27°52' W 097°03'0 0.0
2018-Feb-15 12:59N 27°52' W 097°03'0 0.0
2018-Feb-15 11:46N 27°52' W 097°03'0 0.0
2018-Feb-15 11:30N 27°52' W 097°03'0 0.0
2018-Feb-15 07:51N 27°52' W 097°03'0 0.0
2018-Feb-15 07:29N 27°52' W 097°03'0 0.0
2018-Feb-15 06:58N 27°52' W 097°03'0 0.0
2018-Feb-15 06:25N 27°52' W 097°03'0 0.0
2018-Feb-15 05:59N 27°52' W 097°03'0 0.0
2018-Feb-15 05:29N 27°52' W 097°03'0 0.0
2018-Feb-15 05:00N 27°52' W 097°03'0 0.0
2018-Feb-15 04:30N 27°52' W 097°03'0 0.0
2018-Feb-15 03:59N 27°52' W 097°03'0 0.0
2018-Feb-15 03:29N 27°52' W 097°03'0 0.0
2018-Feb-15 02:59N 27°52' W 097°03'0 0.0
2018-Feb-15 02:30N 27°52' W 097°03'0 0.0
2018-Feb-15 02:00N 27°52' W 097°03'0 0.0
2018-Feb-15 01:29N 27°52' W 097°03'0 0.0
2018-Feb-15 00:58N 27°52' W 097°03'0 0.0
2018-Feb-15 00:30N 27°52' W 097°03'0 0.0
2018-Feb-14 23:59N 27°52' W 097°03'0 0.0
2018-Feb-14 23:30N 27°52' W 097°03'0 0.0
2018-Feb-14 23:00N 27°52' W 097°03'0 0.0
2018-Feb-14 22:27N 27°52' W 097°03'0 0.0
2018-Feb-14 21:59N 27°52' W 097°03'0 0.0
2018-Feb-14 21:30N 27°52' W 097°03'0 0.0
2018-Feb-14 20:58N 27°52' W 097°03'0 0.0
2018-Feb-14 20:30N 27°52' W 097°03'0 0.0
2018-Feb-14 19:57N 27°52' W 097°03'0 0.0
2018-Feb-14 19:30N 27°52' W 097°03'0 0.0
2018-Feb-14 18:59N 27°52' W 097°03'0 0.0
2018-Feb-14 18:29N 27°52' W 097°03'0 0.0
2018-Feb-14 17:59N 27°52' W 097°03'0 0.0
2018-Feb-14 17:30N 27°52' W 097°03'0 0.0
2018-Feb-14 17:00N 27°52' W 097°03'0 0.0
2018-Feb-14 16:29N 27°52' W 097°03'0 0.0
2018-Feb-14 16:00N 27°52' W 097°03'0 0.0
2018-Feb-14 15:29N 27°52' W 097°03'0 0.0
2018-Feb-14 15:00N 27°52' W 097°03'0 0.0
2018-Feb-14 14:30N 27°52' W 097°03'0 0.0
2018-Feb-14 14:00N 27°52' W 097°03'0 0.0
2018-Feb-14 13:29N 27°52' W 097°03'0 0.0
2018-Feb-14 12:59N 27°52' W 097°03'0 0.0
2018-Feb-14 12:26N 27°52' W 097°03'0 0.0
2018-Feb-14 11:58N 27°52' W 097°03'0 0.0
2018-Feb-14 11:30N 27°52' W 097°03'0 0.0
2018-Feb-14 10:59N 27°52' W 097°03'0 0.0
2018-Feb-14 10:29N 27°52' W 097°03'0 0.0
2018-Feb-14 10:00N 27°52' W 097°03'0 0.0
2018-Feb-14 09:27N 27°52' W 097°03'0 0.0
2018-Feb-14 08:59N 27°52' W 097°03'0 0.0
2018-Feb-14 08:30N 27°52' W 097°03'0 0.0
2018-Feb-14 08:00N 27°52' W 097°03'0 0.0
2018-Feb-14 07:29N 27°52' W 097°03'0 0.0
2018-Feb-14 06:59N 27°52' W 097°03'0 0.0
2018-Feb-14 06:30N 27°52' W 097°03'0 0.0
2018-Feb-14 06:00N 27°52' W 097°03'0 0.0
2018-Feb-14 05:30N 27°52' W 097°03'0 0.0
2018-Feb-14 05:00N 27°52' W 097°03'0 0.0
2018-Feb-14 04:29N 27°52' W 097°03'0 0.0
2018-Feb-14 03:59N 27°52' W 097°03'0 0.0
2018-Feb-14 03:29N 27°52' W 097°03'0 0.0
2018-Feb-14 03:00N 27°52' W 097°03'0 0.0
2018-Feb-14 02:30N 27°52' W 097°03'0 0.0
2018-Feb-14 02:00N 27°52' W 097°03'0 0.0
2018-Feb-14 01:29N 27°52' W 097°03'0 0.0
2018-Feb-14 00:59N 27°52' W 097°03'0 0.0
2018-Feb-14 00:30N 27°52' W 097°03'0 0.0
2018-Feb-13 23:59N 27°52' W 097°03'0 0.0
2018-Feb-13 23:29N 27°52' W 097°03'0 0.0
2018-Feb-13 22:59N 27°52' W 097°03'0 0.0
2018-Feb-13 22:29N 27°52' W 097°03'0 0.4
2018-Feb-13 22:00N 27°52' W 097°03'1 2.5
2018-Feb-13 21:30N 27°51' W 097°04'1 1.3
2018-Feb-13 21:00N 27°51' W 097°03'1 1.6
2018-Feb-13 20:29N 27°52' W 097°03'0 0.0
2018-Feb-13 19:59N 27°52' W 097°03'0 0.0
2018-Feb-13 19:28N 27°52' W 097°03'0 0.0
2018-Feb-13 19:00N 27°52' W 097°03'0 0.0
2018-Feb-13 18:30N 27°52' W 097°03'0 0.0
2018-Feb-13 17:59N 27°52' W 097°03'0 0.0
2018-Feb-13 17:30N 27°52' W 097°03'0 0.4
2018-Feb-13 16:58N 27°52' W 097°03'1 2.7
2018-Feb-13 16:30N 27°51' W 097°04'1 2.9
2018-Feb-13 15:59N 27°52' W 097°03'0 0.0
2018-Feb-13 15:29N 27°52' W 097°03'0 0.0
2018-Feb-13 15:00N 27°52' W 097°03'0 0.0
2018-Feb-13 14:30N 27°52' W 097°03'0 0.0
2018-Feb-13 13:59N 27°52' W 097°03'0 0.0
2018-Feb-13 13:29N 27°52' W 097°03'0 0.0
2018-Feb-13 13:00N 27°52' W 097°03'0 0.0
2018-Feb-13 12:30N 27°52' W 097°03'0 0.0
2018-Feb-13 11:59N 27°52' W 097°03'0 0.0
2018-Feb-13 11:27N 27°52' W 097°03'0 0.0
2018-Feb-13 11:00N 27°52' W 097°03'0 0.0
2018-Feb-13 10:28N 27°52' W 097°03'1 1.9
2018-Feb-13 09:58N 27°51' W 097°03'1 2.1
2018-Feb-13 09:29N 27°52' W 097°03'0 0.0
2018-Feb-13 08:59N 27°52' W 097°03'0 0.0
2018-Feb-13 08:29N 27°52' W 097°03'0 0.0
2018-Feb-13 08:00N 27°52' W 097°03'0 0.0
2018-Feb-13 07:30N 27°52' W 097°03'0 0.0
2018-Feb-13 07:00N 27°52' W 097°03'0 0.0
2018-Feb-13 06:29N 27°52' W 097°03'0 0.0
2018-Feb-13 05:59N 27°52' W 097°03'0 0.0
2018-Feb-13 05:30N 27°52' W 097°03'0 0.0
2018-Feb-13 05:00N 27°52' W 097°03'0 0.0
2018-Feb-13 04:30N 27°52' W 097°03'0 0.0
2018-Feb-13 03:59N 27°52' W 097°03'0 0.0
2018-Feb-13 03:29N 27°52' W 097°03'0 0.0
2018-Feb-13 02:59N 27°52' W 097°03'0 0.0
2018-Feb-13 02:30N 27°52' W 097°03'0 0.0
2018-Feb-13 02:00N 27°52' W 097°03'0 0.0
2018-Feb-13 01:28N 27°52' W 097°03'0 0.0
2018-Feb-13 01:00N 27°52' W 097°03'0 0.0
2018-Feb-13 00:29N 27°52' W 097°03'0 0.0
2018-Feb-12 23:58N 27°52' W 097°03'0 0.0
2018-Feb-12 23:30N 27°52' W 097°03'0 0.0
2018-Feb-12 23:00N 27°52' W 097°03'0 0.0
2018-Feb-12 22:29N 27°52' W 097°03'0 0.0
2018-Feb-12 21:59N 27°52' W 097°03'0 0.0
2018-Feb-12 21:30N 27°52' W 097°03'0 0.0
2018-Feb-12 20:58N 27°52' W 097°03'0 0.0
2018-Feb-12 20:30N 27°52' W 097°03'0 0.0
2018-Feb-12 19:58N 27°52' W 097°03'0 0.0
2018-Feb-12 19:29N 27°52' W 097°03'0 0.0
2018-Feb-12 18:57N 27°52' W 097°03'0 0.0
2018-Feb-12 18:29N 27°52' W 097°03'0 0.0
2018-Feb-12 17:58N 27°52' W 097°03'0 0.0
2018-Feb-12 17:30N 27°52' W 097°03'0 0.0
2018-Feb-12 17:00N 27°52' W 097°03'0 0.0
2018-Feb-12 16:29N 27°52' W 097°03'0 0.0
2018-Feb-12 15:59N 27°52' W 097°03'0 0.0
2018-Feb-12 15:17N 27°52' W 097°03'0 0.0
2018-Feb-12 15:00N 27°52' W 097°03'0 0.0
2018-Feb-12 14:28N 27°52' W 097°03'17 0.4
2018-Feb-10 15:50N 28°07' W 096°55'0 0.0
2018-Feb-10 15:30N 28°07' W 096°55'0 0.0
2018-Feb-10 14:59N 28°07' W 096°55'0 0.0
2018-Feb-10 14:30N 28°07' W 096°55'0 0.0
2018-Feb-09 19:30N 28°07' W 096°55'0 0.0
2018-Feb-09 15:30N 28°08' W 096°55'  

Dump ship's entire track history